createdAt,value
2023-03-11T00:01:16.777Z,3.5625
2023-03-11T00:04:17.235Z,3.775
2023-03-11T00:07:17.258Z,3.7
2023-03-11T00:11:16.313Z,5.625
2023-03-11T00:14:16.609Z,2.625
2023-03-11T00:17:16.674Z,2.3375
2023-03-11T00:21:18.201Z,2.75
2023-03-11T00:24:16.658Z,2.3125
2023-03-11T00:27:16.511Z,2.7125
2023-03-11T00:31:16.223Z,2.875
2023-03-11T00:34:16.899Z,3.55
2023-03-11T00:37:16.537Z,3.0625
2023-03-11T00:41:16.989Z,2.8375
2023-03-11T00:44:17.175Z,2.2750000000000004
2023-03-11T00:47:17.520Z,2.4375
2023-03-11T00:51:16.978Z,3.2125
2023-03-11T00:54:17.098Z,3.3625
2023-03-11T00:57:17.046Z,4.4375
2023-03-11T01:01:18.848Z,3.75
2023-03-11T01:04:17.018Z,2.9125000000000005
2023-03-11T01:07:16.676Z,2.8125
2023-03-11T01:11:16.939Z,9.5875
2023-03-11T01:14:17.826Z,6.625
2023-03-11T01:17:17.301Z,3.375
2023-03-11T01:21:16.848Z,2.4124999999999996
2023-03-11T01:24:17.360Z,2.525
2023-03-11T01:27:17.172Z,2.7875
2023-03-11T01:31:17.045Z,2.575
2023-03-11T01:34:17.397Z,2.5999999999999996
2023-03-11T01:37:17.589Z,2.175
2023-03-11T01:41:16.940Z,3.9375
2023-03-11T01:44:16.906Z,3.2
2023-03-11T01:47:36.952Z,3.0250000000000004
2023-03-11T01:51:20.729Z,3.0125
2023-03-11T01:54:21.328Z,2.7750000000000004
2023-03-11T01:57:16.850Z,2.1
2023-03-11T02:01:16.808Z,2.125
2023-03-11T02:04:17.773Z,3.075
2023-03-11T02:07:17.314Z,2.375
2023-03-11T02:11:21.509Z,2.225
2023-03-11T02:14:17.281Z,2.2125000000000004
2023-03-11T02:17:17.472Z,2.4000000000000004
2023-03-11T02:21:24.200Z,3.8625
2023-03-11T02:24:22.471Z,2.0125
2023-03-11T02:27:19.317Z,3.3874999999999997
2023-03-11T02:31:16.835Z,3.6500000000000004
2023-03-11T02:34:23.616Z,2.575
2023-03-11T02:37:17.742Z,2.0500000000000003
2023-03-11T02:41:16.998Z,4.2125
2023-03-11T02:44:17.261Z,3.175
2023-03-11T02:47:17.244Z,2.475
2023-03-11T02:51:16.862Z,2.9625
2023-03-11T02:54:17.483Z,3.1125
2023-03-11T02:57:17.059Z,2.6125
2023-03-11T03:01:17.184Z,2.8375
2023-03-11T03:04:17.524Z,1.6875
2023-03-11T03:07:17.303Z,2.4875
2023-03-11T03:11:17.026Z,2.525
2023-03-11T03:14:17.294Z,2.6750000000000003
2023-03-11T03:17:17.297Z,2.0875000000000004
2023-03-11T03:21:16.571Z,1.875
2023-03-11T03:24:17.057Z,1.725
2023-03-11T03:27:17.021Z,1.8249999999999997
2023-03-11T03:31:16.357Z,1.95
2023-03-11T03:34:16.579Z,2.175
2023-03-11T03:37:16.504Z,1.7499999999999998
2023-03-11T03:41:17.072Z,1.6749999999999998
2023-03-11T03:44:17.430Z,1.7374999999999998
2023-03-11T03:47:17.533Z,3.2625
2023-03-11T03:51:17.176Z,2.8375000000000004
2023-03-11T03:54:17.135Z,1.6125
2023-03-11T03:57:17.249Z,2.525
2023-03-11T04:01:16.492Z,2.3625
2023-03-11T04:04:16.953Z,2.05
2023-03-11T04:07:16.722Z,2.1875
2023-03-11T04:11:17.105Z,1.8875
2023-03-11T04:14:17.209Z,1.8875000000000002
2023-03-11T04:17:18.287Z,2.9375
2023-03-11T04:21:16.181Z,2.2625
2023-03-11T04:24:16.724Z,1.7875
2023-03-11T04:27:16.601Z,2.325
2023-03-11T04:31:16.621Z,1.825
2023-03-11T04:34:16.659Z,1.45
2023-03-11T04:37:16.768Z,1.7875
2023-03-11T04:41:16.162Z,2.275
2023-03-11T04:44:16.956Z,2.2375
2023-03-11T04:47:16.972Z,1.6
2023-03-11T04:51:17.197Z,2.8499999999999996
2023-03-11T04:54:17.154Z,2.0625
2023-03-11T04:57:16.997Z,2.05
2023-03-11T05:01:16.618Z,1.5750000000000002
2023-03-11T05:04:17.262Z,1.6124999999999998
2023-03-11T05:07:17.026Z,1.5375
2023-03-11T05:11:16.404Z,1.8875
2023-03-11T05:14:16.783Z,1.7125
2023-03-11T05:17:19.140Z,2.2249999999999996
2023-03-11T05:21:16.490Z,1.6625
2023-03-11T05:24:16.770Z,2.85
2023-03-11T05:27:18.486Z,1.7750000000000001
2023-03-11T05:31:16.504Z,2.4875
2023-03-11T05:34:17.283Z,1.9875
2023-03-11T05:37:17.142Z,3.175
2023-03-11T05:41:20.112Z,4.7125
2023-03-11T05:44:20.214Z,2.6999999999999997
2023-03-11T05:47:20.067Z,2.3625
2023-03-11T05:51:16.662Z,1.85
2023-03-11T05:54:17.115Z,3.3125
2023-03-11T05:57:17.291Z,1.7375
2023-03-11T06:01:18.439Z,2.4625000000000004
2023-03-11T06:04:17.297Z,1.4625
2023-03-11T06:07:17.518Z,2.1
2023-03-11T06:11:17.542Z,3.075
2023-03-11T06:14:17.315Z,2.975
2023-03-11T06:17:17.157Z,2.325
2023-03-11T06:21:19.804Z,2.2625
2023-03-11T06:24:17.430Z,2.075
2023-03-11T06:27:17.437Z,2.075
2023-03-11T06:31:19.607Z,1.9125
2023-03-11T06:34:17.562Z,2.5625
2023-03-11T06:37:17.879Z,2.1624999999999996
2023-03-11T06:41:16.650Z,1.9125
2023-03-11T06:44:17.286Z,1.975
2023-03-11T06:47:16.926Z,1.7625
2023-03-11T06:51:17.889Z,2.1875
2023-03-11T06:54:17.173Z,1.625
2023-03-11T06:57:17.182Z,2.5375
2023-03-11T07:01:19.554Z,2.05
2023-03-11T07:04:17.173Z,1.8250000000000002
2023-03-11T07:07:17.665Z,2.0999999999999996
2023-03-11T07:11:19.076Z,2.4499999999999997
2023-03-11T07:14:16.680Z,2.425
2023-03-11T07:17:16.488Z,2.1624999999999996
2023-03-11T07:21:19.168Z,2.0875000000000004
2023-03-11T07:24:17.861Z,2.6125
2023-03-11T07:27:17.563Z,4.125
2023-03-11T07:31:19.728Z,5.5875
2023-03-11T07:34:16.725Z,4.550000000000001
2023-03-11T07:37:16.557Z,4.275
2023-03-11T07:41:16.751Z,6.0625
2023-03-11T07:44:17.513Z,4
2023-03-11T07:47:17.022Z,2.525
2023-03-11T07:51:18.664Z,10.825
2023-03-11T07:54:16.824Z,4.3
2023-03-11T07:57:17.979Z,3.6875
2023-03-11T08:01:18.669Z,3.1
2023-03-11T08:04:17.596Z,5.4
2023-03-11T08:07:17.128Z,4.0875
2023-03-11T08:11:17.954Z,10.162500000000001
2023-03-11T08:14:17.377Z,4.1125
2023-03-11T08:17:17.415Z,4.7375
2023-03-11T08:21:19.397Z,13.649999999999999
2023-03-11T08:24:17.552Z,5.65
2023-03-11T08:27:17.422Z,7.1625
2023-03-11T08:31:19.375Z,9.075000000000001
2023-03-11T08:34:17.520Z,12.7875
2023-03-11T08:37:17.382Z,10.0125
2023-03-11T08:41:16.829Z,9.212499999999999
2023-03-11T08:44:17.370Z,7.3
2023-03-11T08:47:17.155Z,10.5
2023-03-11T08:51:16.279Z,41.05
2023-03-11T08:54:16.539Z,38.075
2023-03-11T08:57:16.466Z,24.637500000000003
2023-03-11T09:01:18.120Z,14.049999999999999
2023-03-11T09:04:17.652Z,12.162500000000001
2023-03-11T09:07:18.047Z,9.275
2023-03-11T09:11:18.218Z,9.399999999999999
2023-03-11T09:14:17.422Z,9.3375
2023-03-11T09:17:17.845Z,11.25
2023-03-11T09:21:17.373Z,13.75
2023-03-11T09:24:17.416Z,15
2023-03-11T09:27:17.495Z,18.612499999999997
2023-03-11T09:31:17.218Z,29.7
2023-03-11T09:34:16.636Z,18.4
2023-03-11T09:37:16.534Z,15.1625
2023-03-11T09:41:26.623Z,16.099999999999998
2023-03-11T09:44:23.269Z,14.0125
2023-03-11T09:47:36.194Z,10.537500000000001
2023-03-11T09:51:20.123Z,12.5125
2023-03-11T09:54:17.986Z,11.7125
2023-03-11T09:57:21.570Z,14.5625
2023-03-11T10:01:22.298Z,13.95
2023-03-11T10:04:22.891Z,10.4375
2023-03-11T10:07:24.841Z,9.1375
2023-03-11T10:11:32.372Z,8.45
2023-03-11T10:14:33.504Z,7.3625
2023-03-11T10:17:35.966Z,7.275
2023-03-11T10:21:30.191Z,8.65
2023-03-11T10:24:41.509Z,8.6125
2023-03-11T10:27:21.926Z,10.862499999999999
2023-03-11T10:31:26.509Z,11.6875
2023-03-11T10:34:22.514Z,9.375
2023-03-11T10:37:20.535Z,10.0875
2023-03-11T10:41:23.035Z,9.5
2023-03-11T10:44:22.467Z,10.925
2023-03-11T10:47:19.106Z,9.4625
2023-03-11T10:51:21.214Z,12.85
2023-03-11T10:54:28.368Z,12.0625
2023-03-11T10:57:23.304Z,10.4375
2023-03-11T11:01:18.158Z,10.95
2023-03-11T11:04:28.051Z,8.7625
2023-03-11T11:07:28.934Z,7.612500000000001
2023-03-11T11:11:22.791Z,8.6875
2023-03-11T11:14:16.559Z,8.7875
2023-03-11T11:17:19.940Z,7.625
2023-03-11T11:21:28.120Z,6.525
2023-03-11T11:24:23.232Z,5.2375
2023-03-11T11:27:20.103Z,3.7
2023-03-11T11:31:23.371Z,3.5125
2023-03-11T11:34:30.777Z,3.3125
2023-03-11T11:37:17.050Z,2.5875
2023-03-11T11:41:19.937Z,4.2625
2023-03-11T11:44:21.415Z,3.125
2023-03-11T11:47:19.480Z,2.9124999999999996
2023-03-11T11:51:21.161Z,3.8125
2023-03-11T11:54:27.049Z,5.775
2023-03-11T11:57:20.632Z,4.6875
2023-03-11T12:01:23.269Z,4.0125
2023-03-11T12:04:54.025Z,3.3375
2023-03-11T12:07:38.355Z,4.575
2023-03-11T12:11:23.198Z,3.925
2023-03-11T12:14:26.043Z,3.225
2023-03-11T12:17:21.575Z,11
2023-03-11T12:21:32.818Z,16.4625
2023-03-11T12:24:34.932Z,9.225000000000001
2023-03-11T12:27:21.844Z,7.05
2023-03-11T12:31:17.802Z,3.375
2023-03-11T12:34:21.402Z,2.85
2023-03-11T12:37:22.558Z,2.6375
2023-03-11T12:41:34.629Z,3.4375
2023-03-11T12:44:26.562Z,2.35
2023-03-11T12:47:21.695Z,2.25
2023-03-11T12:52:01.797Z,2.8375000000000004
2023-03-11T12:54:27.749Z,3.9125
2023-03-11T12:57:33.042Z,3.9875
2023-03-11T13:01:57.311Z,4.1875
2023-03-11T13:04:29.551Z,3.825
2023-03-11T13:07:39.191Z,9.225
2023-03-11T13:11:49.105Z,23.975
2023-03-11T13:14:26.197Z,13.45
2023-03-11T13:17:24.413Z,7.075
2023-03-11T13:21:37.964Z,10.0875
2023-03-11T13:24:50.955Z,6.525
2023-03-11T13:27:33.054Z,5.137499999999999
2023-03-11T13:31:33.452Z,5.775
2023-03-11T13:34:27.853Z,3.6750000000000003
2023-03-11T13:37:29.209Z,2.8249999999999997
2023-03-11T13:41:21.873Z,3.5125
2023-03-11T13:44:27.952Z,4.112500000000001
2023-03-11T13:47:19.047Z,5.15
2023-03-11T13:51:21.365Z,4.475
2023-03-11T13:54:32.089Z,3.5124999999999997
2023-03-11T13:57:28.091Z,4.9375
2023-03-11T14:01:17.908Z,5.862500000000001
2023-03-11T14:04:23.188Z,5.0625
2023-03-11T14:07:24.749Z,4.0625
2023-03-11T14:11:17.219Z,5.7
2023-03-11T14:14:54.134Z,3.8499999999999996
2023-03-11T14:17:19.459Z,12.1375
2023-03-11T14:21:19.359Z,35.8875
2023-03-11T14:24:18.820Z,25.8375
2023-03-11T14:27:16.832Z,6.775
2023-03-11T14:31:29.953Z,3.525
2023-03-11T14:34:18.928Z,8.275
2023-03-11T14:37:25.710Z,7.1625
2023-03-11T14:41:16.694Z,4.6875
2023-03-11T14:44:17.586Z,4
2023-03-11T14:47:22.111Z,3.7624999999999997
2023-03-11T14:51:23.317Z,2.3625
2023-03-11T14:54:23.210Z,1.8875000000000002
2023-03-11T14:57:23.728Z,2.15
2023-03-11T15:01:21.519Z,3.075
2023-03-11T15:04:28.448Z,2.7875
2023-03-11T15:07:19.316Z,2.1
2023-03-11T15:11:20.663Z,1.775
2023-03-11T15:14:22.590Z,1.8
2023-03-11T15:17:33.967Z,1.85
2023-03-11T15:21:20.784Z,4.15
2023-03-11T15:24:21.273Z,4.875
2023-03-11T15:27:27.658Z,6.300000000000001
2023-03-11T15:31:27.776Z,7.9125
2023-03-11T15:34:27.631Z,5.3375
2023-03-11T15:37:20.042Z,6.2875
2023-03-11T15:41:16.940Z,7.699999999999999
2023-03-11T15:44:25.209Z,6.7875
2023-03-11T15:47:18.975Z,5.975
2023-03-11T15:51:18.871Z,5.9
2023-03-11T15:54:16.744Z,4.6875
2023-03-11T15:57:23.223Z,5.449999999999999
2023-03-11T16:01:16.338Z,4.4
2023-03-11T16:04:18.556Z,4.3999999999999995
2023-03-11T16:07:18.468Z,3.4000000000000004
2023-03-11T16:11:16.765Z,5.3375
2023-03-11T16:14:20.632Z,6.1625
2023-03-11T16:17:16.740Z,11.7
2023-03-11T16:21:22.376Z,11.7125
2023-03-11T16:24:22.322Z,10.075
2023-03-11T16:27:19.959Z,6.5125
2023-03-11T16:31:16.736Z,3.7375
2023-03-11T16:34:16.819Z,4.1375
2023-03-11T16:37:17.708Z,5.275
2023-03-11T16:41:17.580Z,5.949999999999999
2023-03-11T16:44:17.404Z,6.987500000000001
2023-03-11T16:47:17.958Z,5.3375
2023-03-11T16:51:16.840Z,8.3375
2023-03-11T16:54:17.358Z,5.7
2023-03-11T16:57:19.884Z,4.449999999999999
2023-03-11T17:01:21.860Z,4.225
2023-03-11T17:04:17.686Z,4.5625
2023-03-11T17:07:18.766Z,7.499999999999999
2023-03-11T17:11:21.238Z,8.225
2023-03-11T17:14:18.498Z,5.3375
2023-03-11T17:17:19.706Z,5.2625
2023-03-11T17:21:18.269Z,6.824999999999999
2023-03-11T17:24:17.820Z,6.375
2023-03-11T17:27:18.751Z,7.7875000000000005
2023-03-11T17:31:20.313Z,5.9
2023-03-11T17:34:19.411Z,5.05
2023-03-11T17:37:18.972Z,8.9625
2023-03-11T17:41:21.588Z,6.9750000000000005
2023-03-11T17:44:21.838Z,7.362499999999999
2023-03-11T17:47:20.759Z,10.35
2023-03-11T17:51:19.865Z,8.3375
2023-03-11T17:54:17.344Z,9.649999999999999
2023-03-11T17:57:17.342Z,8.425
2023-03-11T18:01:20.087Z,9.875
2023-03-11T18:04:16.979Z,6.012499999999999
2023-03-11T18:07:18.148Z,10.1875
2023-03-11T18:11:20.949Z,12.3125
2023-03-11T18:14:17.804Z,8.8125
2023-03-11T18:17:18.504Z,6.8375
2023-03-11T18:21:18.568Z,8.762500000000001
2023-03-11T18:24:19.212Z,9.0375
2023-03-11T18:27:21.905Z,7.625
2023-03-11T18:31:20.630Z,7.2375
2023-03-11T18:34:16.832Z,7.2125
2023-03-11T18:37:16.834Z,10.725000000000001
2023-03-11T18:41:17.500Z,8.987499999999999
2023-03-11T18:44:17.646Z,8.987499999999999
2023-03-11T18:47:17.623Z,6.5625
2023-03-11T18:51:16.814Z,6.987500000000001
2023-03-11T18:54:17.194Z,6.975
2023-03-11T18:57:17.180Z,7.450000000000001
2023-03-11T19:01:18.757Z,9.65
2023-03-11T19:04:16.914Z,5.625
2023-03-11T19:07:17.016Z,6.875
2023-03-11T19:11:19.096Z,7.95
2023-03-11T19:14:17.210Z,6.575
2023-03-11T19:17:18.652Z,7.2875000000000005
2023-03-11T19:21:19.488Z,6.487500000000001
2023-03-11T19:24:19.787Z,4.2124999999999995
2023-03-11T19:27:18.548Z,3.6125000000000003
2023-03-11T19:31:16.833Z,5.4375
2023-03-11T19:34:16.880Z,6.775
2023-03-11T19:37:17.941Z,7.3375
2023-03-11T19:41:18.227Z,8.1
2023-03-11T19:44:16.406Z,10.2
2023-03-11T19:47:16.343Z,8.8125
2023-03-11T19:51:18.504Z,5.7875
2023-03-11T19:54:17.750Z,5.550000000000001
2023-03-11T19:57:18.696Z,7.2250000000000005
2023-03-11T20:01:19.415Z,6.7375
2023-03-11T20:04:17.327Z,4.55
2023-03-11T20:07:17.041Z,6.5375
2023-03-11T20:11:16.707Z,10.075
2023-03-11T20:14:16.739Z,8.4125
2023-03-11T20:17:16.950Z,11.1875
2023-03-11T20:21:17.010Z,7.025
2023-03-11T20:24:16.906Z,7.2749999999999995
2023-03-11T20:27:17.008Z,7.4125
2023-03-11T20:31:18.945Z,5.112500000000001
2023-03-11T20:34:17.045Z,3.4
2023-03-11T20:37:16.970Z,3.6500000000000004
2023-03-11T20:41:17.564Z,3.3625
2023-03-11T20:44:19.495Z,3.8375
2023-03-11T20:47:17.916Z,4.737500000000001
2023-03-11T20:51:18.366Z,5.3875
2023-03-11T20:54:17.298Z,4.6625
2023-03-11T20:57:17.473Z,5.675000000000001
2023-03-11T21:01:19.690Z,5.5625
2023-03-11T21:04:17.953Z,5.675000000000001
2023-03-11T21:07:17.354Z,3.2750000000000004
2023-03-11T21:11:17.517Z,4.5375
2023-03-11T21:14:18.615Z,12.8
2023-03-11T21:17:17.935Z,14.725
2023-03-11T21:21:18.871Z,19.037499999999998
2023-03-11T21:24:17.387Z,16.1875
2023-03-11T21:27:17.395Z,11.7625
2023-03-11T21:31:19.012Z,9.3
2023-03-11T21:34:17.371Z,5.487500000000001
2023-03-11T21:37:17.423Z,6.0375
2023-03-11T21:41:18.303Z,9.025
2023-03-11T21:44:17.337Z,8.3125
2023-03-11T21:47:17.142Z,7.2625
2023-03-11T21:51:18.210Z,5.387499999999999
2023-03-11T21:54:16.961Z,4.95
2023-03-11T21:57:16.938Z,6.225
2023-03-11T22:01:16.604Z,4.9
2023-03-11T22:04:16.852Z,5.1375
2023-03-11T22:07:16.934Z,4.7625
2023-03-11T22:11:19.504Z,4.4625
2023-03-11T22:14:17.504Z,3.3875
2023-03-11T22:17:17.578Z,4.9125
2023-03-11T22:21:17.763Z,3.575
2023-03-11T22:24:16.647Z,3.025
2023-03-11T22:27:16.829Z,2.5374999999999996
2023-03-11T22:31:19.042Z,4.9125
2023-03-11T22:34:17.283Z,3.625
2023-03-11T22:37:17.709Z,3.4625000000000004
2023-03-11T22:41:19.818Z,4.25
2023-03-11T22:44:17.349Z,3.4125
2023-03-11T22:47:17.420Z,3.2875
2023-03-11T22:51:16.992Z,4.025
2023-03-11T22:54:17.351Z,3.0625
2023-03-11T22:57:17.052Z,2.825
2023-03-11T23:01:17.813Z,5.575
2023-03-11T23:04:16.944Z,5.5874999999999995
2023-03-11T23:07:16.847Z,8.5
2023-03-11T23:11:19.153Z,8.9375
2023-03-11T23:14:17.726Z,6.65
2023-03-11T23:17:16.921Z,7.074999999999999
2023-03-11T23:21:19.131Z,6.2375
2023-03-11T23:24:17.264Z,4.574999999999999
2023-03-11T23:27:17.094Z,4.775
2023-03-11T23:31:18.501Z,3.7375
2023-03-11T23:34:17.321Z,5.425
2023-03-11T23:37:17.837Z,5.8
2023-03-11T23:41:19.376Z,7
2023-03-11T23:44:17.547Z,7.05
2023-03-11T23:47:17.550Z,5.9125
2023-03-11T23:51:16.494Z,7.800000000000001
2023-03-11T23:54:17.259Z,6.4625
2023-03-11T23:57:17.041Z,4.875
